EDTLLFST

Guest
Details From EDTL - LAHR
To LFST - Entzheim
Flight Number -
Tags generated
Created
Modified
Stats Distance 13 nm / 24 km
Max Altitude 1,600 ft / 488 m
Waypoints 3
Social Downloads 10
Likes 0
Share VATSIM

Download

Looking for another format? Having issues loading an existing format? Contact us
Advertisement - Login to hide

Notes

Basic altitude profile: - Ascent Rate: 1000ft/min - Ascent Speed: 250kts - Cruise Altitude: 35000ft - Cruise Speed: 420kts - Descent Rate: 1500ft/min - Descent Speed: 250kts Options: - Use NATs: yes - Use PACOTS: yes - Use low airways: yes - Use high airways: yes

Route

EDTL LUPEN LFST

ID Type Via Altitude Latitude Longitude Leg Dist Tot Dist Heading (true) Name
O EDTL APT - 0 ft / 0 m 48.36925˚ 7.82772˚ - 0 nm - LAHR
LUPEN FIX - 1,600 ft / 488 m 48.43500˚ 7.73361˚ 5 nm 5 nm 316° / 316° -
O LFST APT - 0 ft / 0 m 48.53833˚ 7.62826˚ 7 nm 12 nm 326° / 326° Entzheim

Altitude Profile

Advertisement - Login to hide

EDTL

Details ICAO EDTL (LHA)
Name LAHR
Region Germany - Civil
Timezone Europe/Berlin (UTC+2.0)
Stats Elevation 511 ft / 156 m (AMSL)
Location 48.369251° 7.827725°
Runways 1
Magnetic Variation 2.213° E

METAR

EDTL 230720Z VRB02KT CAVOK 17/14 Q1017 RMK

Decode

TAF

Not found

Departure Runways

ID Width Length Bearing (true) Bearing (mag) Surface Threshold Offset Overrun Length
03 148 ft / 45 m 9,837 ft / 2,998 m 28.21° 26.00° Asphalt 0 ft / 0 m 837 ft / 255 m
21 148 ft / 45 m 9,837 ft / 2,998 m 208.23° 206.02° Asphalt 0 ft / 0 m 886 ft / 270 m

LFST

Details ICAO LFST (SXB)
Name Entzheim
Region France
Timezone Europe/Paris (UTC+2.0)
Stats Elevation 504 ft / 154 m (AMSL)
Location 48.538335° 7.628265°
Runways 1
Magnetic Variation 2.159° E

METAR

LFST 230730Z AUTO 24003KT 220V280 CAVOK 17/14 Q1017 NOSIG

Decode

TAF

TAF LFST 230500Z 2306/2406 02005KT CAVOK TEMPO 2310/2319 FEW050CB PROB30 TEMPO 2312/2318 TS SCT050CB

Decode

Destination Runways

ID Width Length Bearing (true) Bearing (mag) Surface Threshold Offset Overrun Length
05 148 ft / 45 m 7,899 ft / 2,408 m 48.60° 46.44° Asphalt 0 ft / 0 m 860 ft / 262 m
23 148 ft / 45 m 7,899 ft / 2,408 m 228.62° 226.46° Asphalt 0 ft / 0 m 902 ft / 275 m

Approach Navaids

Runway Type Ident Frequency Range Bearing (true) Bearing (mag) Slope Elevation
05 Localiser ENT 108.55 MHz 18 nm / 33 km 48.63° 46.47° - 499 ft / 152 m (AMSL)
05 Glidescope ENT 108.55 MHz 10 nm / 19 km 48.61° 46.45° 3.50° 561 ft / 171 m (AMSL)
05 DME ENT 108.55 MHz 18 nm / 33 km - - - 504 ft / 154 m (AMSL)
23 Localiser STZ 109.55 MHz 18 nm / 33 km 228.59° 226.43° - 515 ft / 157 m (AMSL)
23 Glidescope STZ 109.55 MHz 10 nm / 19 km 228.61° 226.45° 3.00° 542 ft / 165 m (AMSL)
23 DME STZ 109.55 MHz 18 nm / 33 km - - - 504 ft / 154 m (AMSL)